Time;durP1;ratioP1;P1;durP2;ratioP2;P2;SDS_P1;SDS_P2;PMS_P1;PMS_P2;Temp;Humidity;BMP_temperature;BMP_pressure;BME280_temperature;BME280_humidity;BME280_pressure;Samples;Min_cycle;Max_cycle;Signal;HPM_P1;HPM_P2
2022/07/13 00:00:34;;;;;;;13.23;7.45;;;;;;;22.02;74.75;101996.16;4991098;28;20125;-28
2022/07/13 00:03:00;;;;;;;10.95;7.60;;;;;;;22.06;76.53;101994.59;4993945;28;20038;-29
2022/07/13 00:05:25;;;;;;;11.50;7.60;;;;;;;21.99;74.56;102002.09;4994144;28;20066;-27
2022/07/13 00:07:51;;;;;;;11.55;6.72;;;;;;;21.97;72.45;101993.25;4992390;28;20541;-28
2022/07/13 00:10:17;;;;;;;9.65;7.18;;;;;;;21.98;71.81;101994.91;4993867;28;20109;-29
2022/07/13 00:12:43;;;;;;;10.00;6.93;;;;;;;21.99;71.29;101999.34;4993202;28;20031;-28
2022/07/13 00:15:09;;;;;;;10.32;7.47;;;;;;;22.02;71.45;101990.66;4993641;28;20033;-29
2022/07/13 00:17:34;;;;;;;9.30;7.57;;;;;;;22.03;72.96;102000.53;4993913;28;20038;-29
2022/07/13 00:19:59;;;;;;;8.30;6.88;;;;;;;22.02;73.18;101990.66;4992763;28;20490;-29
2022/07/13 00:22:25;;;;;;;8.50;6.93;;;;;;;22.00;72.84;101990.03;4993799;28;20121;-29
2022/07/13 00:24:51;;;;;;;9.13;7.18;;;;;;;21.98;72.30;101994.91;4992056;28;20157;-28
2022/07/13 00:27:16;;;;;;;8.85;7.40;;;;;;;21.96;73.24;101979.75;4991516;28;20133;-28
2022/07/13 00:29:41;;;;;;;12.40;7.35;;;;;;;21.90;73.33;101976.03;4987663;28;20028;-29
2022/07/13 00:32:07;;;;;;;8.25;7.40;;;;;;;21.81;74.43;101974.69;4993422;28;20125;-29
2022/07/13 00:34:32;;;;;;;11.63;7.22;;;;;;;21.73;74.63;101970.34;4992871;28;20038;-29
2022/07/13 00:36:58;;;;;;;12.43;7.07;;;;;;;21.69;75.85;101975.44;4992811;28;20026;-29
2022/07/13 00:39:23;;;;;;;11.10;7.40;;;;;;;21.69;76.05;101975.44;4991714;28;20026;-29
2022/07/13 00:41:49;;;;;;;8.75;7.07;;;;;;;21.68;75.76;101972.94;4975294;28;20034;-28
2022/07/13 00:44:15;;;;;;;11.52;7.05;;;;;;;21.69;74.90;101969.97;4992279;28;20033;-28
2022/07/13 00:46:43;;;;;;;11.13;6.75;;;;;;;21.72;74.42;101970.56;4991675;28;20037;-28
2022/07/13 00:49:11;;;;;;;9.07;6.90;;;;;;;21.75;74.07;101962.75;4992615;28;20429;-29
2022/07/13 00:51:37;;;;;;;10.48;7.28;;;;;;;21.80;74.79;101964.78;4993026;28;20366;-29
2022/07/13 00:54:03;;;;;;;10.73;7.32;;;;;;;21.81;74.93;101956.34;4992708;28;20030;-28
2022/07/13 00:56:29;;;;;;;7.88;6.40;;;;;;;21.88;74.95;101956.25;4992394;28;20030;-30
2022/07/13 00:58:55;;;;;;;9.75;7.05;;;;;;;21.94;74.69;101947.13;4990205;28;20038;-28
2022/07/13 01:01:20;;;;;;;11.48;7.07;;;;;;;21.91;74.44;101939.38;4992310;28;20065;-29
2022/07/13 01:03:46;;;;;;;8.55;7.00;;;;;;;21.88;74.69;101934.31;4991104;28;20050;-29
2022/07/13 01:06:11;;;;;;;8.35;6.60;;;;;;;21.83;73.87;101931.47;4992643;28;20030;-28
2022/07/13 01:08:37;;;;;;;9.43;6.82;;;;;;;21.82;75.25;101935.25;4991172;28;20041;-29
2022/07/13 01:11:02;;;;;;;8.48;7.32;;;;;;;21.77;74.82;101935.09;4990687;28;20062;-29
2022/07/13 01:13:28;;;;;;;12.38;6.30;;;;;;;21.74;72.26;101935.56;4991039;28;20058;-28
2022/07/13 01:15:53;;;;;;;12.23;7.00;;;;;;;21.74;71.16;101933.66;4990928;28;20026;-29
2022/07/13 01:18:19;;;;;;;10.75;6.47;;;;;;;21.78;69.99;101937.63;4990681;28;20038;-28
2022/07/13 01:20:44;;;;;;;11.25;6.60;;;;;;;21.84;70.13;101944.09;4992230;28;20125;-28
2022/07/13 01:23:10;;;;;;;9.75;6.65;;;;;;;21.89;70.62;101938.75;4992567;28;20130;-29
2022/07/13 01:25:36;;;;;;;8.10;6.25;;;;;;;21.95;71.16;101947.94;4991626;28;20419;-29
2022/07/13 01:28:01;;;;;;;8.80;5.97;;;;;;;21.98;71.92;101939.25;4992033;28;20021;-29
2022/07/13 01:30:27;;;;;;;9.48;6.45;;;;;;;22.00;70.99;101940.69;4990732;28;20486;-28
2022/07/13 01:32:52;;;;;;;14.05;6.43;;;;;;;22.01;70.64;101947.88;4990604;28;20030;-29
2022/07/13 01:35:19;;;;;;;9.73;6.43;;;;;;;22.03;70.82;101937.50;4991829;28;20073;-28
2022/07/13 01:37:45;;;;;;;9.75;6.32;;;;;;;22.02;67.73;101941.31;4990473;28;20462;-28
2022/07/13 01:40:13;;;;;;;8.80;5.57;;;;;;;22.07;67.24;101941.47;4991645;28;20038;-28
2022/07/13 01:42:40;;;;;;;10.75;6.35;;;;;;;22.12;68.88;101944.34;4990146;28;20076;-29
2022/07/13 01:45:07;;;;;;;7.20;5.70;;;;;;;22.11;67.72;101930.84;4991586;28;20026;-28
2022/07/13 01:47:37;;;;;;;8.38;5.70;;;;;;;22.16;67.44;101925.50;4990454;28;20534;-29
2022/07/13 01:50:02;;;;;;;12.85;5.75;;;;;;;22.13;65.46;101920.50;4990585;28;20018;-29
2022/07/13 01:52:28;;;;;;;14.02;5.60;;;;;;;22.18;65.28;101925.28;4991570;28;20030;-27
2022/07/13 01:54:53;;;;;;;9.38;5.85;;;;;;;22.19;64.35;101924.25;4989838;28;20027;-29
2022/07/13 01:57:18;;;;;;;8.88;5.45;;;;;;;22.24;64.48;101911.50;4975127;28;20031;-28
2022/07/13 01:59:44;;;;;;;10.30;5.05;;;;;;;22.24;64.12;101910.66;4983425;28;20122;-29
2022/07/13 02:02:09;;;;;;;5.20;4.70;;;;;;;22.25;63.72;101913.19;4991153;28;20142;-28
2022/07/13 02:04:35;;;;;;;13.60;5.45;;;;;;;22.26;63.34;101914.84;4991534;28;20044;-28
2022/07/13 02:07:01;;;;;;;9.65;5.28;;;;;;;22.24;62.80;101905.19;4990307;28;20041;-29
2022/07/13 02:09:26;;;;;;;7.65;4.57;;;;;;;22.23;63.07;101909.84;4990413;28;20502;-28
2022/07/13 02:11:51;;;;;;;8.10;5.20;;;;;;;22.23;63.78;101914.50;4990888;28;20034;-28
2022/07/13 02:14:17;;;;;;;10.15;5.07;;;;;;;22.21;63.58;101905.66;4990383;28;20031;-29
2022/07/13 02:16:42;;;;;;;8.52;4.75;;;;;;;22.17;63.39;101901.66;4990772;28;20061;-29
2022/07/13 02:19:07;;;;;;;11.32;4.97;;;;;;;22.16;63.11;101909.06;4991087;28;20062;-30
2022/07/13 02:21:33;;;;;;;15.48;5.05;;;;;;;22.16;62.72;101900.84;4988943;28;20038;-29
2022/07/13 02:23:58;;;;;;;9.63;5.38;;;;;;;22.17;63.46;101899.78;4990700;28;20031;-29
2022/07/13 02:26:23;;;;;;;8.77;4.72;;;;;;;22.17;62.63;101905.25;4990312;28;20327;-28
2022/07/13 02:28:49;;;;;;;12.32;5.32;;;;;;;22.17;62.75;101902.53;4989969;28;20034;-29
2022/07/13 02:31:17;;;;;;;7.35;5.15;;;;;;;22.18;63.01;101903.34;4990320;28;20023;-28
2022/07/13 02:33:42;;;;;;;11.90;4.93;;;;;;;22.20;63.54;101899.34;5016959;23;20058;-78
2022/07/13 02:36:07;;;;;;;10.63;5.03;;;;;;;22.19;63.22;101902.31;4972374;28;20038;-80
2022/07/13 02:38:33;;;;;;;7.50;5.20;;;;;;;22.20;63.94;101898.50;4972273;28;20045;-78
2022/07/13 02:40:58;;;;;;;9.82;5.00;;;;;;;22.20;63.77;101893.03;4955607;28;20026;-78
2022/07/13 02:43:24;;;;;;;9.20;5.35;;;;;;;22.22;64.18;101907.31;4955645;28;20198;-78
2022/07/13 02:45:49;;;;;;;6.88;4.80;;;;;;;22.21;64.08;101908.41;4955646;28;20038;-78
2022/07/13 02:48:15;;;;;;;13.70;5.03;;;;;;;22.21;64.05;101894.69;4940413;28;20142;-78
2022/07/13 02:50:40;;;;;;;8.68;5.07;;;;;;;22.19;64.50;101888.59;4973990;28;20502;-78
2022/07/13 02:53:05;;;;;;;7.25;5.40;;;;;;;22.17;65.46;101887.94;4975883;28;20541;-79
2022/07/13 02:55:31;;;;;;;6.20;4.60;;;;;;;22.12;64.76;101881.28;4982132;28;20111;-79
2022/07/13 02:57:56;;;;;;;9.00;5.28;;;;;;;22.06;65.56;101886.84;4982708;28;20561;-78
2022/07/13 03:00:22;;;;;;;7.80;4.75;;;;;;;22.04;68.02;101878.88;4981215;28;20519;-77
2022/07/13 03:02:47;;;;;;;9.18;4.80;;;;;;;22.00;68.03;101882.31;4986437;28;20034;-78
2022/07/13 03:05:13;;;;;;;10.80;4.82;;;;;;;21.97;68.48;101874.56;4966461;28;20037;-77
2022/07/13 03:07:39;;;;;;;9.85;5.18;;;;;;;21.95;67.88;101876.69;4978727;28;20388;-79
2022/07/13 03:10:05;;;;;;;8.80;4.38;;;;;;;21.93;67.82;101871.44;4960767;28;20114;-79
2022/07/13 03:12:30;;;;;;;7.78;4.72;;;;;;;21.90;66.28;101869.97;4980569;28;20118;-79
2022/07/13 03:14:55;;;;;;;8.27;4.93;;;;;;;21.92;67.37;101867.03;4978835;28;20019;-78
2022/07/13 03:17:21;;;;;;;15.02;5.45;;;;;;;21.88;67.46;101869.41;4976240;28;20125;-78
2022/07/13 03:19:46;;;;;;;11.45;4.82;;;;;;;21.85;67.52;101863.53;4974831;28;20055;-79
2022/07/13 03:22:11;;;;;;;6.15;4.68;;;;;;;21.83;68.51;101872.00;4974183;28;20544;-80
2022/07/13 03:24:37;;;;;;;9.90;4.85;;;;;;;21.80;67.73;101867.00;4974221;28;20387;-80
2022/07/13 03:27:02;;;;;;;8.50;5.00;;;;;;;21.80;68.23;101867.00;4973050;28;20398;-80
2022/07/13 03:29:28;;;;;;;9.07;5.13;;;;;;;21.79;69.07;101862.56;4973057;28;20106;-78
2022/07/13 03:31:53;;;;;;;8.93;5.22;;;;;;;21.77;68.97;101877.56;4974003;28;20061;-80
2022/07/13 03:34:18;;;;;;;6.45;4.88;;;;;;;21.72;69.24;101867.28;4973387;28;20085;-78
2022/07/13 03:36:44;;;;;;;8.10;4.75;;;;;;;21.72;69.55;101867.28;4976052;28;20076;-79
2022/07/13 03:39:09;;;;;;;8.15;4.70;;;;;;;21.72;69.60;101870.03;4975244;28;20030;-79
2022/07/13 03:41:35;;;;;;;12.63;4.95;;;;;;;21.70;68.52;101870.28;4974016;28;20080;-80
2022/07/13 03:44:00;;;;;;;13.60;4.90;;;;;;;21.73;67.14;101868.97;4972117;28;20035;-79
2022/07/13 03:46:25;;;;;;;4.97;4.40;;;;;;;21.76;67.42;101871.25;4973116;28;20023;-80
2022/07/13 03:48:51;;;;;;;10.73;4.80;;;;;;;21.78;66.97;101863.63;4971820;28;20026;-79
2022/07/13 03:51:16;;;;;;;9.40;4.88;;;;;;;21.79;66.19;101865.31;4972263;28;20090;-80
2022/07/13 03:53:41;;;;;;;9.63;4.20;;;;;;;21.82;65.55;101869.47;4973808;28;20126;-79
2022/07/13 03:56:07;;;;;;;6.55;4.32;;;;;;;21.85;66.21;101867.13;4976797;28;20033;-79
2022/07/13 03:58:32;;;;;;;10.23;5.97;;;;;;;21.86;66.24;101862.47;4976597;28;20085;-79
2022/07/13 04:00:58;;;;;;;8.35;4.55;;;;;;;21.84;65.76;101870.09;4976789;28;20023;-78
2022/07/13 04:03:23;;;;;;;10.02;4.72;;;;;;;21.85;66.15;101860.78;4976595;28;20026;-77
2022/07/13 04:05:49;;;;;;;13.77;4.82;;;;;;;21.87;66.24;101864.16;4976501;28;20033;-78
2022/07/13 04:08:14;;;;;;;7.63;4.80;;;;;;;21.87;65.94;101872.38;4976300;28;20106;-76
2022/07/13 04:10:39;;;;;;;7.93;4.78;;;;;;;21.86;65.48;101871.53;4975321;28;20062;-78
2022/07/13 04:13:05;;;;;;;8.00;5.00;;;;;;;21.90;65.38;101866.41;4975443;28;20078;-78
2022/07/13 04:15:30;;;;;;;8.40;4.80;;;;;;;21.89;64.06;101870.22;4979592;28;20035;-80
2022/07/13 04:17:55;;;;;;;8.73;4.28;;;;;;;21.94;63.42;101870.38;4958344;28;20057;-78
2022/07/13 04:20:22;;;;;;;10.85;3.78;;;;;;;21.98;62.31;101871.56;4974133;28;20436;-78
2022/07/13 04:22:47;;;;;;;10.52;4.40;;;;;;;21.99;62.10;101862.28;4974206;28;20027;-77
2022/07/13 04:25:14;;;;;;;10.45;3.78;;;;;;;22.08;62.58;101868.28;4973877;28;20135;-77
2022/07/13 04:27:39;;;;;;;4.63;3.42;;;;;;;22.08;62.13;101862.78;4975594;28;20077;-77
2022/07/13 04:30:05;;;;;;;5.80;3.10;;;;;;;22.09;61.91;101854.34;4975953;28;20478;-78
2022/07/13 04:32:30;;;;;;;6.28;3.25;;;;;;;22.11;62.55;101860.41;4974874;28;20049;-78
2022/07/13 04:34:56;;;;;;;8.60;3.45;;;;;;;22.09;62.56;101854.34;4976421;28;20057;-77
2022/07/13 04:37:22;;;;;;;7.85;3.13;;;;;;;22.06;62.71;101863.00;4973856;28;20035;-76
2022/07/13 04:39:48;;;;;;;6.78;3.05;;;;;;;22.05;63.22;101855.03;4974885;28;20015;-78
2022/07/13 04:42:13;;;;;;;7.40;3.42;;;;;;;22.02;63.09;101855.50;4974736;28;20067;-78
2022/07/13 04:44:38;;;;;;;9.85;3.42;;;;;;;22.03;63.88;101855.25;4975127;28;20042;-80
2022/07/13 04:47:04;;;;;;;8.10;3.10;;;;;;;22.03;64.39;101860.75;4974201;28;20078;-80
2022/07/13 04:49:29;;;;;;;12.73;3.70;;;;;;;22.00;64.55;101855.72;4977117;28;20455;-79
2022/07/13 04:51:54;;;;;;;8.90;3.53;;;;;;;21.96;64.87;101854.53;4978413;28;20411;-79
2022/07/13 04:54:21;;;;;;;10.43;3.53;;;;;;;21.95;65.28;101858.34;4974695;28;20031;-81
2022/07/13 04:56:47;;;;;;;8.75;3.63;;;;;;;21.95;65.68;101869.28;4975528;28;20046;-80
2022/07/13 04:59:12;;;;;;;7.03;3.83;;;;;;;21.97;66.24;101872.66;4974046;28;20030;-80
2022/07/13 05:01:39;;;;;;;7.07;3.90;;;;;;;21.95;66.92;101877.50;4954783;28;20043;-78
2022/07/13 05:04:04;;;;;;;11.55;3.80;;;;;;;21.92;67.26;101869.75;4955462;28;20031;-79
2022/07/13 05:06:30;;;;;;;6.10;3.80;;;;;;;21.92;67.83;101869.75;4959616;28;20526;-79
2022/07/13 05:08:56;;;;;;;8.73;4.25;;;;;;;21.94;68.00;101862.16;4980713;28;20033;-79
2022/07/13 05:11:21;;;;;;;12.85;4.00;;;;;;;21.89;68.55;101867.50;4977160;28;20371;-78
2022/07/13 05:13:47;;;;;;;6.15;3.72;;;;;;;21.94;69.08;101872.28;4979564;28;20043;-78
2022/07/13 05:16:12;;;;;;;11.48;4.35;;;;;;;21.94;69.34;101870.38;4981650;28;20030;-79
2022/07/13 05:18:37;;;;;;;7.93;4.55;;;;;;;21.98;69.34;101868.00;4994607;28;20022;-81
2022/07/13 05:21:03;;;;;;;8.95;3.85;;;;;;;22.06;69.71;101865.75;4995056;28;20023;-80
2022/07/13 05:23:28;;;;;;;8.50;4.72;;;;;;;22.07;69.58;101866.59;4980678;28;20114;-80
2022/07/13 05:25:54;;;;;;;7.25;4.18;;;;;;;22.05;69.55;101869.56;4973546;28;20114;-82
2022/07/13 05:28:19;;;;;;;9.82;4.80;;;;;;;22.08;69.32;101871.84;4973910;28;20489;-80
2022/07/13 05:30:45;;;;;;;6.50;4.93;;;;;;;22.08;69.66;101863.63;4974939;28;20447;-80
2022/07/13 05:33:10;;;;;;;9.15;4.43;;;;;;;22.09;69.74;101864.44;4974449;28;20026;-79
2022/07/13 05:35:35;;;;;;;9.18;4.43;;;;;;;22.10;69.67;101866.13;4974455;28;20074;-79
2022/07/13 05:38:01;;;;;;;6.32;3.90;;;;;;;22.13;70.39;101868.41;4974220;28;20033;-79
2022/07/13 05:40:26;;;;;;;8.77;4.53;;;;;;;22.17;70.41;101872.38;4974380;28;20051;-79
2022/07/13 05:42:52;;;;;;;7.88;4.60;;;;;;;22.18;70.42;101873.19;4975316;28;20030;-79
2022/07/13 05:45:18;;;;;;;12.73;5.00;;;;;;;22.22;70.32;101886.25;4974815;28;20031;-78
2022/07/13 05:47:46;;;;;;;7.93;4.40;;;;;;;22.22;70.66;101888.13;4972835;28;20030;-78
2022/07/13 05:50:13;;;;;;;8.48;4.20;;;;;;;22.25;70.78;101890.38;4974259;28;20403;-78
2022/07/13 05:52:39;;;;;;;15.00;4.93;;;;;;;22.30;70.76;101893.25;4973932;28;20041;-79
2022/07/13 05:55:05;;;;;;;8.73;4.68;;;;;;;22.35;70.72;101890.66;4972770;28;20031;-78
2022/07/13 05:57:30;;;;;;;11.20;4.25;;;;;;;22.41;70.40;101897.09;4973517;28;20026;-78
2022/07/13 05:59:55;;;;;;;12.23;4.60;;;;;;;22.41;70.12;101895.22;4972885;28;20037;-77
2022/07/13 06:02:21;;;;;;;10.00;4.57;;;;;;;22.41;69.45;101887.00;4971409;28;20034;-79
2022/07/13 06:04:46;;;;;;;7.93;4.35;;;;;;;22.45;69.97;101895.56;4973328;28;20023;-76
2022/07/13 06:07:12;;;;;;;12.50;4.80;;;;;;;22.48;69.35;101887.69;4973471;28;20030;-77
2022/07/13 06:09:37;;;;;;;13.50;5.28;;;;;;;22.55;68.26;101884.84;4979166;28;20027;-77
2022/07/13 06:12:03;;;;;;;9.20;4.53;;;;;;;22.60;68.28;101892.38;4983772;28;20069;-76
2022/07/13 06:14:28;;;;;;;8.70;4.30;;;;;;;22.71;67.56;101899.78;4977224;28;20060;-76
2022/07/13 06:16:53;;;;;;;16.42;4.45;;;;;;;22.91;67.49;101894.78;4972293;28;20117;-78
2022/07/13 06:19:19;;;;;;;12.45;4.28;;;;;;;23.14;67.34;101898.63;4974042;28;20022;-75
2022/07/13 06:21:44;;;;;;;8.13;4.13;;;;;;;23.25;66.24;101889.53;4975340;28;20080;-82
2022/07/13 06:24:09;;;;;;;11.95;4.28;;;;;;;23.37;65.20;101898.59;4976411;28;20109;-80
2022/07/13 06:26:35;;;;;;;14.23;4.40;;;;;;;23.59;64.62;101895.19;4988520;28;20038;-79
2022/07/13 06:29:00;;;;;;;11.52;4.35;;;;;;;23.73;62.93;101896.63;4989250;28;20034;-80
2022/07/13 06:31:26;;;;;;;8.48;3.63;;;;;;;23.78;61.50;101898.63;4987101;28;20026;-79
2022/07/13 06:33:52;;;;;;;7.28;3.55;;;;;;;23.81;61.75;101890.72;4989960;28;20150;-78
2022/07/13 06:36:18;;;;;;;9.02;4.28;;;;;;;24.08;60.64;101899.22;4989606;28;20031;-82
2022/07/13 06:38:44;;;;;;;4.65;3.45;;;;;;;24.18;60.34;101890.31;4995994;28;20061;-81
2022/07/13 06:41:09;;;;;;;9.70;3.58;;;;;;;24.42;59.76;101893.75;4988623;28;20038;-80
2022/07/13 06:43:36;;;;;;;8.30;4.82;;;;;;;24.59;59.06;101891.03;4975047;28;20847;-81
2022/07/13 06:46:01;;;;;;;10.07;3.90;;;;;;;24.74;58.98;101895.94;4985191;28;20058;-79
2022/07/13 06:48:26;;;;;;;10.25;4.25;;;;;;;24.88;57.76;101901.94;4989507;28;20073;-81
2022/07/13 06:50:52;;;;;;;7.05;4.28;;;;;;;24.91;58.03;101893.19;4986510;28;20026;-79
2022/07/13 06:53:17;;;;;;;13.18;4.35;;;;;;;24.80;58.41;101902.38;4978045;28;20031;-80
2022/07/13 06:55:42;;;;;;;9.70;4.13;;;;;;;24.64;57.37;101904.88;4977208;28;20105;-78
2022/07/13 06:58:08;;;;;;;9.50;3.92;;;;;;;24.40;58.50;101901.41;4966535;28;20547;-81
2022/07/13 07:00:33;;;;;;;7.65;4.10;;;;;;;24.36;58.48;101908.53;4969952;28;20053;-82
2022/07/13 07:02:58;;;;;;;8.07;3.70;;;;;;;24.75;59.38;101908.66;4991223;28;20023;-82
2022/07/13 07:05:24;;;;;;;8.48;3.88;;;;;;;25.63;56.23;101912.38;4977368;28;20062;-82
2022/07/13 07:07:50;;;;;;;9.35;3.83;;;;;;;26.96;52.60;101909.25;4964488;28;20471;-79
2022/07/13 07:10:15;;;;;;;11.32;4.50;;;;;;;28.18;48.79;101909.81;4986010;28;20069;-81
2022/07/13 07:12:40;;;;;;;22.30;4.55;;;;;;;28.45;47.69;101908.75;4988641;28;20030;-80
2022/07/13 07:15:07;;;;;;;12.65;3.95;;;;;;;28.79;47.01;101913.72;4980974;28;20118;-80
2022/07/13 07:17:32;;;;;;;9.95;3.40;;;;;;;28.60;47.66;101916.25;4994845;28;20015;-81
2022/07/13 07:19:59;;;;;;;10.88;3.60;;;;;;;28.88;47.02;101907.34;4989057;28;20073;-80
2022/07/13 07:22:25;;;;;;;10.57;3.80;;;;;;;29.40;45.84;101912.78;4987446;28;20114;-80
2022/07/13 07:24:51;;;;;;;7.32;3.78;;;;;;;30.30;43.76;101911.75;4989300;28;20050;-82
2022/07/13 07:27:17;;;;;;;7.18;3.53;;;;;;;30.61;42.31;101917.91;4982702;28;20053;-81
2022/07/13 07:29:42;;;;;;;7.63;3.63;;;;;;;30.65;42.34;101913.44;4984436;28;20593;-80
2022/07/13 07:32:07;;;;;;;12.87;3.77;;;;;;;29.97;42.84;101912.22;4983293;28;20842;-80
2022/07/13 07:34:33;;;;;;;7.83;3.90;;;;;;;29.47;44.42;101910.53;4982600;28;20078;-79
2022/07/13 07:36:58;;;;;;;12.82;3.80;;;;;;;28.77;45.99;101905.69;4992033;28;20042;-80
2022/07/13 07:39:24;;;;;;;11.98;4.00;;;;;;;28.52;45.23;101909.31;4994118;28;20037;-80
2022/07/13 07:41:49;;;;;;;8.15;3.60;;;;;;;28.02;46.68;101900.66;4992123;28;20031;-79
2022/07/13 07:44:15;;;;;;;9.18;3.70;;;;;;;27.73;47.22;101907.75;4995358;28;20022;-80
2022/07/13 07:46:41;;;;;;;9.77;4.65;;;;;;;27.41;47.76;101911.50;4987634;28;20109;-80
2022/07/13 07:49:06;;;;;;;11.13;5.50;;;;;;;27.10;48.38;101916.81;4989775;28;20034;-80
2022/07/13 07:51:32;;;;;;;11.05;3.85;;;;;;;27.12;49.42;101927.59;4976426;28;20553;-79
2022/07/13 07:53:57;;;;;;;8.30;3.80;;;;;;;27.18;48.32;101922.97;4960310;28;20050;-79
2022/07/13 07:56:23;;;;;;;6.65;3.70;;;;;;;27.19;48.91;101922.69;4979758;28;20026;-79
2022/07/13 07:58:49;;;;;;;7.70;3.97;;;;;;;27.06;48.96;101920.38;4989933;28;20462;-81
2022/07/13 08:01:14;;;;;;;13.10;4.25;;;;;;;27.00;50.00;101926.97;4995186;28;20057;-79
2022/07/13 08:03:40;;;;;;;6.18;4.07;;;;;;;27.02;50.10;101917.31;4987202;28;20027;-78
2022/07/13 08:06:05;;;;;;;9.68;4.63;;;;;;;27.27;48.33;101916.66;4988838;28;20049;-79
2022/07/13 08:08:31;;;;;;;13.93;4.70;;;;;;;27.41;48.80;101930.84;4987198;28;20034;-79
2022/07/13 08:10:56;;;;;;;13.70;4.78;;;;;;;27.87;47.77;101930.22;4981224;28;20035;-79
2022/07/13 08:13:22;;;;;;;10.15;4.82;;;;;;;28.27;46.41;101917.56;4982818;28;20482;-79
2022/07/13 08:15:47;;;;;;;8.13;4.70;;;;;;;28.13;46.27;101920.88;4995121;28;20113;-79
2022/07/13 08:18:13;;;;;;;15.82;4.47;;;;;;;28.25;46.37;101920.59;4990120;28;20379;-81
2022/07/13 08:20:38;;;;;;;15.38;4.35;;;;;;;28.75;46.63;101912.59;4979600;28;20526;-80
2022/07/13 08:23:50;;;;;;;8.65;4.50;;;;;;;29.42;44.79;101925.25;4980937;28;20629;-82
2022/07/13 08:25:49;;;;;;;8.82;4.97;;;;;;;30.23;42.41;101930.66;4978558;28;20122;-79
2022/07/13 08:28:14;;;;;;;15.83;4.97;;;;;;;30.80;40.83;101935.50;4991009;28;20034;-81
2022/07/13 08:30:41;;;;;;;9.13;4.43;;;;;;;31.36;40.74;101936.03;4982023;28;20033;-81
2022/07/13 08:33:06;;;;;;;10.82;4.50;;;;;;;31.73;39.44;101935.34;4983787;28;20069;-81
2022/07/13 08:41:00;;;;;;;7.30;4.60;;;;;;;32.35;37.12;101938.91;4996411;28;20044;-81
2022/07/13 08:43:26;;;;;;;6.80;4.00;;;;;;;32.81;36.56;101942.91;4993853;28;20027;-79
2022/07/13 08:45:52;;;;;;;;;;;;;;;32.48;37.72;101944.88;4996219;28;20391;-78
2022/07/13 08:48:20;;;;;;;10.40;4.13;;;;;;;32.98;36.98;101934.78;4993286;28;19910;-80
2022/07/13 08:50:46;;;;;;;6.18;4.15;;;;;;;33.44;35.17;101933.06;4981025;28;20026;-81
2022/07/13 08:53:12;;;;;;;9.20;3.97;;;;;;;33.43;35.54;101932.25;4988755;28;20030;-81
2022/07/13 08:55:38;;;;;;;13.27;4.10;;;;;;;33.77;34.79;101936.56;4960494;28;20432;-81
2022/07/13 08:58:03;;;;;;;16.27;4.22;;;;;;;34.03;34.16;101936.00;4981783;28;20042;-79
2022/07/13 09:00:29;;;;;;;9.40;4.73;;;;;;;33.81;34.74;101931.19;4987821;28;20030;-80
2022/07/13 09:02:54;;;;;;;9.80;4.37;;;;;;;33.91;34.49;101939.34;4997917;28;20054;-80
2022/07/13 09:05:21;;;;;;;8.40;4.03;;;;;;;33.88;35.24;101931.59;4996178;28;20038;-80
2022/07/13 09:08:01;;;;;;;6.22;3.80;;;;;;;34.47;33.00;101928.81;4992147;28;20285;-80
2022/07/13 09:10:26;;;;;;;10.00;4.55;;;;;;;34.16;33.03;101940.75;4966096;28;20081;-81
2022/07/13 09:12:52;;;;;;;10.07;4.23;;;;;;;34.42;33.23;101945.72;4995228;28;20070;-81
2022/07/13 09:15:17;;;;;;;11.53;4.30;;;;;;;34.09;33.76;101943.16;4999797;28;20015;-81
2022/07/13 09:17:43;;;;;;;6.67;4.17;;;;;;;34.21;33.36;101949.00;5004163;28;20504;-79
2022/07/13 09:20:15;;;;;;;11.82;4.63;;;;;;;34.24;33.67;101945.56;5017159;28;20038;-81
2022/07/13 09:22:58;;;;;;;10.68;4.70;;;;;;;34.08;33.74;101953.50;5010120;28;20026;-78
2022/07/13 09:25:25;;;;;;;5.75;3.97;;;;;;;34.01;33.39;101947.47;5001176;28;20053;-80
2022/07/13 09:27:50;;;;;;;7.10;4.05;;;;;;;33.88;33.30;101945.53;4983045;28;20430;-82
2022/07/13 09:30:23;;;;;;;10.00;4.30;;;;;;;34.24;33.30;101944.75;4986050;28;20026;-81
2022/07/13 09:32:50;;;;;;;6.70;3.97;;;;;;;34.51;33.30;101950.22;4976607;28;20407;-80
2022/07/13 09:35:16;;;;;;;11.10;4.68;;;;;;;33.84;34.21;101952.91;4980704;28;20137;-79
2022/07/13 09:37:41;;;;;;;9.23;4.87;;;;;;;34.01;33.51;101953.06;4983323;28;20521;-80
2022/07/13 09:40:09;;;;;;;8.70;4.87;;;;;;;33.97;34.19;101956.81;4985579;28;20046;-78
2022/07/13 09:42:45;;;;;;;10.75;5.03;;;;;;;33.55;35.08;101959.66;4976402;28;20426;-81
2022/07/13 09:47:58;;;;;;;11.52;4.75;;;;;;;32.97;36.60;101952.66;4954800;29;20131;-79
2022/07/13 09:50:44;;;;;;;9.80;4.72;;;;;;;32.58;37.38;101955.84;4963608;28;20027;-80
2022/07/13 09:53:32;;;;;;;11.57;4.60;;;;;;;32.88;35.72;101948.91;4974443;28;20050;-79
2022/07/13 09:56:00;;;;;;;13.00;4.30;;;;;;;32.80;36.02;101944.03;4973917;28;20038;-79
2022/07/13 09:58:33;;;;;;;13.60;4.30;;;;;;;32.71;35.43;101957.03;4977515;28;20037;-78
2022/07/13 10:01:00;;;;;;;9.50;4.45;;;;;;;32.39;35.60;101952.22;4939211;28;20086;-81
2022/07/13 10:03:29;;;;;;;11.63;4.97;;;;;;;31.77;36.10;101955.06;4973652;28;20050;-80
2022/07/13 10:05:55;;;;;;;7.68;3.92;;;;;;;31.42;38.08;101951.59;4957432;28;20089;-80
2022/07/13 10:08:21;;;;;;;12.10;3.97;;;;;;;31.13;38.59;101955.22;4973682;28;20364;-80
2022/07/13 10:10:47;;;;;;;18.42;4.13;;;;;;;31.08;39.13;101960.84;4974513;28;20030;-82
2022/07/13 10:13:13;;;;;;;5.50;3.90;;;;;;;30.93;38.61;101964.59;4973642;28;20152;-80
2022/07/13 10:15:40;;;;;;;13.53;4.53;;;;;;;30.59;38.95;101964.59;4973846;28;20383;-80
2022/07/13 10:18:12;;;;;;;10.80;3.77;;;;;;;30.36;39.94;101957.81;4975448;28;20274;-79
2022/07/13 10:20:41;;;;;;;9.60;4.22;;;;;;;30.69;39.23;101972.00;4973412;28;20297;-79
2022/07/13 10:23:07;;;;;;;6.18;3.72;;;;;;;31.28;39.14;101968.97;4972782;28;20345;-79
2022/07/13 10:25:43;;;;;;;10.53;4.07;;;;;;;31.38;38.01;101972.78;4974514;28;20029;-79
2022/07/13 10:28:09;;;;;;;12.27;4.40;;;;;;;31.40;38.32;101987.22;4973266;28;20395;-79
2022/07/13 10:30:35;;;;;;;12.00;4.22;;;;;;;31.55;38.39;101992.63;4956655;28;20066;-79
2022/07/13 10:33:17;;;;;;;14.60;4.37;;;;;;;31.88;38.01;102001.94;4973881;28;20081;-79
2022/07/13 10:35:52;;;;;;;14.50;5.30;;;;;;;31.66;37.86;101999.72;4973555;28;20125;-81
2022/07/13 10:38:19;;;;;;;13.10;4.85;;;;;;;31.47;37.88;102005.22;4973699;28;20019;-80
2022/07/13 10:40:45;;;;;;;11.60;5.10;;;;;;;31.08;39.52;102005.31;4974816;28;20500;-81
2022/07/13 10:43:13;;;;;;;10.83;4.47;;;;;;;30.87;40.21;102003.84;4972997;28;20031;-79
2022/07/13 10:48:07;;;;;;;18.95;5.97;;;;;;;31.60;38.29;102000.91;4976060;28;20090;-78
2022/07/13 10:50:47;;;;;;;11.98;4.78;;;;;;;31.94;37.90;102005.53;4958753;28;20456;-81
2022/07/13 10:53:17;;;;;;;8.77;5.43;;;;;;;31.60;38.46;101995.34;4973800;28;20038;-80
2022/07/13 10:55:51;;;;;;;14.45;4.50;;;;;;;31.62;38.55;101995.03;4943788;28;20022;-80
2022/07/13 10:58:32;;;;;;;12.55;4.55;;;;;;;31.46;38.61;102003.56;4975819;28;20519;-80
2022/07/13 11:00:59;;;;;;;10.25;4.20;;;;;;;31.18;39.61;101996.06;4977155;28;20033;-81
2022/07/13 11:03:43;;;;;;;8.27;4.32;;;;;;;31.06;39.26;102004.78;4983401;28;20117;-80
2022/07/13 11:06:14;;;;;;;12.10;4.45;;;;;;;30.69;40.59;101999.81;4972593;28;20034;-80
2022/07/13 11:08:40;;;;;;;10.52;4.63;;;;;;;30.29;41.22;101993.44;4981761;28;20030;-79
2022/07/13 11:11:13;;;;;;;26.00;5.15;;;;;;;29.98;42.08;102004.66;4980779;28;20177;-79
2022/07/13 11:13:39;;;;;;;14.38;4.68;;;;;;;30.38;41.46;102014.72;4971795;28;20030;-79
2022/07/13 11:16:08;;;;;;;9.82;4.28;;;;;;;30.72;40.40;102021.44;4963324;28;20117;-79
2022/07/13 11:18:38;;;;;;;13.23;5.18;;;;;;;30.51;40.57;102031.88;4974263;28;20399;-80
2022/07/13 11:21:03;;;;;;;18.00;4.80;;;;;;;30.72;40.95;102027.84;4985445;28;20023;-80
2022/07/13 11:26:28;;;;;;;14.38;5.47;;;;;;;30.34;40.92;102030.31;4991973;28;21019;-80
2022/07/13 11:29:20;;;;;;;12.52;4.50;;;;;;;30.12;41.38;102029.84;4973622;28;20113;-80
2022/07/13 11:31:46;;;;;;;12.38;5.45;;;;;;;29.97;41.94;102028.81;4983194;28;20165;-81